CSHVD LPPT-LPVZ
Flight info
| Callsign | CSHVD |
|---|---|
| Flight time | 1h 15m |
| Altitude | 5000 |
| Route | CHARLIE DCT ENACI TR VXIRA DCT FTIMA DCT VISEU |
| Aircraft | EC35/L-VGD/C |
Departure
| Time | 2026-05-05 08:56 |
|---|---|
| Airport | Lisbon Humberto Delgado Airport (LPPT) |
Arrival
| Time | 2026-05-05 10:11 |
|---|---|
| Airport | Aerodromo Goncalves Lobato (Viseu Airport) (LPVZ) |
| Time | Latitude | Longitude | Altitude | Speed | Heading |
|---|---|---|---|---|---|
| 2026-05-05 08:39 | 38.72301 | -9.35779 | 313 ft | 0 kts | 87° |
| 2026-05-05 08:51 | 38.72295 | -9.35783 | 316 ft | 1 kts | 101° |
| 2026-05-05 08:51 | 38.72295 | -9.35774 | 317 ft | 1 kts | 109° |
| 2026-05-05 08:51 | 38.72293 | -9.35748 | 317 ft | 2 kts | 82° |
| 2026-05-05 08:52 | 38.72293 | -9.35741 | 319 ft | 1 kts | 74° |
| 2026-05-05 08:52 | 38.72300 | -9.35714 | 322 ft | 4 kts | 78° |
| 2026-05-05 08:52 | 38.72309 | -9.35668 | 322 ft | 7 kts | 82° |
| 2026-05-05 08:52 | 38.72322 | -9.35607 | 321 ft | 6 kts | 82° |
| 2026-05-05 08:53 | 38.72333 | -9.35576 | 319 ft | 3 kts | 79° |
| 2026-05-05 08:53 | 38.72339 | -9.35548 | 317 ft | 3 kts | 78° |
| 2026-05-05 08:53 | 38.72339 | -9.35545 | 316 ft | 0 kts | 65° |
| 2026-05-05 08:54 | 38.72342 | -9.35531 | 320 ft | 3 kts | 81° |
| 2026-05-05 08:54 | 38.72347 | -9.35504 | 328 ft | 4 kts | 87° |
| 2026-05-05 08:54 | 38.72381 | -9.35471 | 330 ft | 10 kts | 350° |
| 2026-05-05 08:55 | 38.72612 | -9.35547 | 377 ft | 64 kts | 336° |
| 2026-05-05 08:55 | 38.73107 | -9.35745 | 580 ft | 79 kts | 337° |
| 2026-05-05 08:55 | 38.73668 | -9.35714 | 759 ft | 92 kts | 27° |
| 2026-05-05 08:55 | 38.73738 | -9.34931 | 897 ft | 106 kts | 118° |
| 2026-05-05 08:56 | 38.73260 | -9.34215 | 998 ft | 109 kts | 116° |
| 2026-05-05 08:56 | 38.72835 | -9.33408 | 1030 ft | 109 kts | 116° |
| 2026-05-05 08:56 | 38.72501 | -9.32592 | 1100 ft | 104 kts | 107° |
| 2026-05-05 08:56 | 38.72171 | -9.31744 | 1075 ft | 107 kts | 109° |
| 2026-05-05 08:57 | 38.71847 | -9.30906 | 1104 ft | 101 kts | 104° |
| 2026-05-05 08:57 | 38.71616 | -9.30063 | 1155 ft | 98 kts | 96° |
| 2026-05-05 08:57 | 38.71478 | -9.29231 | 1208 ft | 95 kts | 88° |
| 2026-05-05 08:57 | 38.71428 | -9.28399 | 1271 ft | 93 kts | 81° |
| 2026-05-05 08:58 | 38.71455 | -9.27603 | 1392 ft | 86 kts | 74° |
| 2026-05-05 08:58 | 38.71418 | -9.26830 | 1475 ft | 91 kts | 94° |
| 2026-05-05 08:58 | 38.71177 | -9.26040 | 1492 ft | 100 kts | 108° |
| 2026-05-05 08:58 | 38.70750 | -9.25292 | 1502 ft | 104 kts | 118° |
| 2026-05-05 08:59 | 38.70286 | -9.24564 | 1501 ft | 107 kts | 121° |
| 2026-05-05 08:59 | 38.69824 | -9.23817 | 1488 ft | 107 kts | 120° |
| 2026-05-05 08:59 | 38.69413 | -9.23035 | 1510 ft | 107 kts | 112° |
| 2026-05-05 08:59 | 38.69049 | -9.22184 | 1509 ft | 111 kts | 111° |
| 2026-05-05 09:00 | 38.68668 | -9.21302 | 1499 ft | 114 kts | 110° |
| 2026-05-05 09:00 | 38.68273 | -9.20411 | 1495 ft | 115 kts | 112° |
| 2026-05-05 09:00 | 38.67868 | -9.19516 | 1492 ft | 116 kts | 112° |
| 2026-05-05 09:00 | 38.67464 | -9.18612 | 1512 ft | 117 kts | 111° |
| 2026-05-05 09:01 | 38.67090 | -9.17690 | 1496 ft | 117 kts | 108° |
| 2026-05-05 09:01 | 38.66725 | -9.16761 | 1485 ft | 114 kts | 107° |
| 2026-05-05 09:01 | 38.66630 | -9.15823 | 1511 ft | 105 kts | 68° |
| 2026-05-05 09:01 | 38.66900 | -9.14966 | 1508 ft | 103 kts | 53° |
| 2026-05-05 09:02 | 38.67326 | -9.14214 | 1521 ft | 109 kts | 43° |
| 2026-05-05 09:02 | 38.67820 | -9.13427 | 1499 ft | 115 kts | 44° |
| 2026-05-05 09:02 | 38.68378 | -9.12707 | 1504 ft | 112 kts | 30° |
| 2026-05-05 09:02 | 38.69026 | -9.12123 | 1504 ft | 114 kts | 29° |
| 2026-05-05 09:03 | 38.69683 | -9.11545 | 1502 ft | 117 kts | 28° |
| 2026-05-05 09:03 | 38.70367 | -9.10949 | 1496 ft | 119 kts | 29° |
| 2026-05-05 09:03 | 38.71061 | -9.10381 | 1496 ft | 118 kts | 23° |
| 2026-05-05 09:03 | 38.71792 | -9.09888 | 1493 ft | 117 kts | 22° |
| 2026-05-05 09:04 | 38.72510 | -9.09390 | 1491 ft | 119 kts | 22° |
| 2026-05-05 09:04 | 38.73259 | -9.08947 | 1501 ft | 117 kts | 13° |
| 2026-05-05 09:04 | 38.74052 | -9.08722 | 1503 ft | 116 kts | 2° |
| 2026-05-05 09:04 | 38.74866 | -9.08629 | 1498 ft | 117 kts | 360° |
| 2026-05-05 09:05 | 38.75677 | -9.08570 | 1498 ft | 117 kts | 357° |
| 2026-05-05 09:05 | 38.76483 | -9.08592 | 1499 ft | 116 kts | 354° |
| 2026-05-05 09:05 | 38.77293 | -9.08662 | 1498 ft | 116 kts | 352° |
| 2026-05-05 09:05 | 38.78102 | -9.08743 | 1493 ft | 116 kts | 353° |
| 2026-05-05 09:06 | 38.78908 | -9.08628 | 1499 ft | 116 kts | 3° |
| 2026-05-05 09:06 | 38.79721 | -9.08467 | 1498 ft | 117 kts | 5° |
| 2026-05-05 09:06 | 38.80521 | -9.08318 | 1499 ft | 116 kts | 4° |
| 2026-05-05 09:06 | 38.81321 | -9.08132 | 1482 ft | 118 kts | 13° |
| 2026-05-05 09:07 | 38.82055 | -9.07685 | 1499 ft | 120 kts | 27° |
| 2026-05-05 09:07 | 38.82728 | -9.07004 | 1487 ft | 125 kts | 36° |
| 2026-05-05 09:07 | 38.83357 | -9.06250 | 1495 ft | 124 kts | 38° |
| 2026-05-05 09:07 | 38.83977 | -9.05479 | 1499 ft | 124 kts | 38° |
| 2026-05-05 09:08 | 38.84596 | -9.04692 | 1495 ft | 125 kts | 37° |
| 2026-05-05 09:08 | 38.85215 | -9.03909 | 1493 ft | 124 kts | 38° |
| 2026-05-05 09:08 | 38.85879 | -9.03233 | 1494 ft | 123 kts | 29° |
| 2026-05-05 09:08 | 38.86587 | -9.02604 | 1493 ft | 122 kts | 27° |
| 2026-05-05 09:09 | 38.87289 | -9.01992 | 1491 ft | 123 kts | 29° |
| 2026-05-05 09:09 | 38.88007 | -9.01397 | 1495 ft | 122 kts | 23° |
| 2026-05-05 09:09 | 38.88770 | -9.00918 | 1495 ft | 121 kts | 15° |
| 2026-05-05 09:09 | 38.89562 | -9.00573 | 1496 ft | 120 kts | 10° |
| 2026-05-05 09:10 | 38.90378 | -9.00330 | 1491 ft | 120 kts | 7° |
| 2026-05-05 09:10 | 38.91192 | -9.00050 | 1488 ft | 120 kts | 10° |
| 2026-05-05 09:10 | 38.92004 | -8.99765 | 1485 ft | 120 kts | 10° |
| 2026-05-05 09:10 | 38.92804 | -8.99490 | 1486 ft | 119 kts | 11° |
| 2026-05-05 09:11 | 38.93614 | -8.99212 | 1487 ft | 120 kts | 11° |
| 2026-05-05 09:11 | 38.94421 | -8.98937 | 1490 ft | 119 kts | 9° |
| 2026-05-05 09:11 | 38.95226 | -8.98661 | 1483 ft | 120 kts | 12° |
| 2026-05-05 09:11 | 38.95999 | -8.98239 | 1483 ft | 121 kts | 20° |
| 2026-05-05 09:12 | 38.96740 | -8.97734 | 1484 ft | 122 kts | 22° |
| 2026-05-05 09:12 | 38.97499 | -8.97210 | 1488 ft | 122 kts | 23° |
| 2026-05-05 09:12 | 38.98244 | -8.96696 | 1485 ft | 122 kts | 21° |
| 2026-05-05 09:12 | 38.98996 | -8.96178 | 1483 ft | 122 kts | 22° |
| 2026-05-05 09:13 | 38.99742 | -8.95666 | 1484 ft | 121 kts | 22° |
| 2026-05-05 09:13 | 39.00494 | -8.95148 | 1479 ft | 122 kts | 22° |
| 2026-05-05 09:13 | 39.01239 | -8.94635 | 1482 ft | 122 kts | 21° |
| 2026-05-05 09:13 | 39.01992 | -8.94117 | 1481 ft | 122 kts | 21° |
| 2026-05-05 09:14 | 39.02738 | -8.93604 | 1487 ft | 121 kts | 21° |
| 2026-05-05 09:14 | 39.03493 | -8.93084 | 1488 ft | 123 kts | 22° |
| 2026-05-05 09:14 | 39.04240 | -8.92571 | 1490 ft | 121 kts | 21° |
| 2026-05-05 09:14 | 39.04993 | -8.92053 | 1481 ft | 121 kts | 21° |
| 2026-05-05 09:15 | 39.05730 | -8.91545 | 1485 ft | 120 kts | 21° |
| 2026-05-05 09:15 | 39.06481 | -8.91026 | 1487 ft | 121 kts | 22° |
| 2026-05-05 09:15 | 39.07216 | -8.90521 | 1490 ft | 120 kts | 22° |
| 2026-05-05 09:15 | 39.07965 | -8.90004 | 1488 ft | 122 kts | 22° |
| 2026-05-05 09:16 | 39.08693 | -8.89492 | 1609 ft | 116 kts | 22° |
| 2026-05-05 09:16 | 39.09393 | -8.88997 | 1738 ft | 114 kts | 22° |
| 2026-05-05 09:16 | 39.10090 | -8.88507 | 1855 ft | 113 kts | 22° |
| 2026-05-05 09:16 | 39.10771 | -8.88031 | 1966 ft | 113 kts | 22° |
| 2026-05-05 09:17 | 39.11486 | -8.87537 | 1976 ft | 118 kts | 21° |
| 2026-05-05 09:17 | 39.12225 | -8.87031 | 1974 ft | 120 kts | 21° |
| 2026-05-05 09:17 | 39.12960 | -8.86529 | 1977 ft | 120 kts | 21° |
| 2026-05-05 09:17 | 39.13702 | -8.86020 | 1981 ft | 121 kts | 21° |
| 2026-05-05 09:18 | 39.14452 | -8.85506 | 1981 ft | 122 kts | 22° |
| 2026-05-05 09:18 | 39.15197 | -8.84996 | 1974 ft | 122 kts | 21° |
| 2026-05-05 09:18 | 39.15948 | -8.84479 | 1969 ft | 122 kts | 21° |
| 2026-05-05 09:18 | 39.16701 | -8.83960 | 1971 ft | 122 kts | 22° |
| 2026-05-05 09:19 | 39.17448 | -8.83444 | 1970 ft | 121 kts | 22° |
| 2026-05-05 09:19 | 39.18189 | -8.82932 | 1968 ft | 121 kts | 22° |
| 2026-05-05 09:19 | 39.18927 | -8.82421 | 1972 ft | 120 kts | 21° |
| 2026-05-05 09:19 | 39.19668 | -8.81908 | 2024 ft | 117 kts | 22° |
| 2026-05-05 09:20 | 39.20367 | -8.81416 | 2160 ft | 113 kts | 22° |
| 2026-05-05 09:20 | 39.21050 | -8.80935 | 2288 ft | 112 kts | 22° |
| 2026-05-05 09:20 | 39.21735 | -8.80455 | 2414 ft | 112 kts | 22° |
| 2026-05-05 09:20 | 39.22422 | -8.79975 | 2535 ft | 112 kts | 21° |
| 2026-05-05 09:21 | 39.23114 | -8.79493 | 2666 ft | 113 kts | 22° |
| 2026-05-05 09:21 | 39.23808 | -8.79010 | 2789 ft | 113 kts | 22° |
| 2026-05-05 09:21 | 39.24505 | -8.78526 | 2914 ft | 113 kts | 22° |
| 2026-05-05 09:21 | 39.25200 | -8.78044 | 3043 ft | 113 kts | 22° |
| 2026-05-05 09:22 | 39.25890 | -8.77565 | 3167 ft | 113 kts | 22° |
| 2026-05-05 09:22 | 39.26588 | -8.77080 | 3296 ft | 113 kts | 22° |
| 2026-05-05 09:22 | 39.27283 | -8.76598 | 3422 ft | 113 kts | 22° |
| 2026-05-05 09:22 | 39.27982 | -8.76115 | 3457 ft | 117 kts | 22° |
| 2026-05-05 09:23 | 39.28717 | -8.75611 | 3463 ft | 119 kts | 21° |
| 2026-05-05 09:23 | 39.29448 | -8.75112 | 3463 ft | 120 kts | 21° |
| 2026-05-05 09:23 | 39.30194 | -8.74600 | 3465 ft | 121 kts | 21° |
| 2026-05-05 09:23 | 39.30937 | -8.74089 | 3464 ft | 121 kts | 21° |
| 2026-05-05 09:24 | 39.31676 | -8.73579 | 3464 ft | 121 kts | 22° |
| 2026-05-05 09:24 | 39.32428 | -8.73058 | 3463 ft | 121 kts | 21° |
| 2026-05-05 09:24 | 39.33167 | -8.72547 | 3462 ft | 122 kts | 22° |
| 2026-05-05 09:24 | 39.33919 | -8.72025 | 3462 ft | 122 kts | 21° |
| 2026-05-05 09:25 | 39.34664 | -8.71508 | 3460 ft | 122 kts | 21° |
| 2026-05-05 09:25 | 39.35414 | -8.70986 | 3475 ft | 121 kts | 21° |
| 2026-05-05 09:25 | 39.36132 | -8.70479 | 3610 ft | 115 kts | 22° |
| 2026-05-05 09:25 | 39.36832 | -8.69985 | 3738 ft | 113 kts | 22° |
| 2026-05-05 09:26 | 39.37521 | -8.69501 | 3867 ft | 112 kts | 22° |
| 2026-05-05 09:26 | 39.38213 | -8.69015 | 3953 ft | 114 kts | 22° |
| 2026-05-05 09:26 | 39.38926 | -8.68519 | 3959 ft | 118 kts | 21° |
| 2026-05-05 09:26 | 39.39667 | -8.68008 | 3962 ft | 120 kts | 21° |
| 2026-05-05 09:27 | 39.40403 | -8.67501 | 3962 ft | 121 kts | 22° |
| 2026-05-05 09:27 | 39.41148 | -8.66987 | 3962 ft | 121 kts | 22° |
| 2026-05-05 09:27 | 39.41895 | -8.66470 | 3963 ft | 121 kts | 21° |
| 2026-05-05 09:27 | 39.42637 | -8.65954 | 3965 ft | 121 kts | 21° |
| 2026-05-05 09:28 | 39.43390 | -8.65431 | 3968 ft | 122 kts | 21° |
| 2026-05-05 09:28 | 39.44138 | -8.64911 | 3965 ft | 122 kts | 21° |
| 2026-05-05 09:28 | 39.44878 | -8.64395 | 3961 ft | 122 kts | 21° |
| 2026-05-05 09:28 | 39.45611 | -8.63880 | 4076 ft | 115 kts | 22° |
| 2026-05-05 09:29 | 39.46302 | -8.63390 | 4202 ft | 113 kts | 22° |
| 2026-05-05 09:29 | 39.46994 | -8.62900 | 4329 ft | 112 kts | 22° |
| 2026-05-05 09:29 | 39.47676 | -8.62420 | 4439 ft | 113 kts | 22° |
| 2026-05-05 09:29 | 39.48389 | -8.61921 | 4452 ft | 118 kts | 21° |
| 2026-05-05 09:30 | 39.49114 | -8.61418 | 4455 ft | 120 kts | 21° |
| 2026-05-05 09:30 | 39.49858 | -8.60904 | 4458 ft | 120 kts | 21° |
| 2026-05-05 09:30 | 39.50602 | -8.60390 | 4462 ft | 121 kts | 21° |
| 2026-05-05 09:30 | 39.51337 | -8.59879 | 4461 ft | 121 kts | 21° |
| 2026-05-05 09:31 | 39.52082 | -8.59360 | 4463 ft | 121 kts | 21° |
| 2026-05-05 09:31 | 39.52830 | -8.58839 | 4458 ft | 122 kts | 21° |
| 2026-05-05 09:31 | 39.53576 | -8.58319 | 4456 ft | 121 kts | 21° |
| 2026-05-05 09:31 | 39.54316 | -8.57802 | 4456 ft | 121 kts | 21° |
| 2026-05-05 09:32 | 39.55065 | -8.57278 | 4456 ft | 121 kts | 21° |
| 2026-05-05 09:32 | 39.55810 | -8.56757 | 4455 ft | 121 kts | 21° |
| 2026-05-05 09:32 | 39.56547 | -8.56242 | 4457 ft | 121 kts | 21° |
| 2026-05-05 09:32 | 39.57291 | -8.55721 | 4459 ft | 121 kts | 22° |
| 2026-05-05 09:33 | 39.58036 | -8.55199 | 4460 ft | 121 kts | 21° |
| 2026-05-05 09:33 | 39.58776 | -8.54681 | 4458 ft | 121 kts | 21° |
| 2026-05-05 09:33 | 39.59518 | -8.54161 | 4459 ft | 121 kts | 22° |
| 2026-05-05 09:33 | 39.60262 | -8.53638 | 4464 ft | 121 kts | 22° |
| 2026-05-05 09:34 | 39.61000 | -8.53121 | 4457 ft | 121 kts | 22° |
| 2026-05-05 09:34 | 39.61757 | -8.52590 | 4451 ft | 122 kts | 22° |
| 2026-05-05 09:34 | 39.62499 | -8.52071 | 4451 ft | 122 kts | 21° |
| 2026-05-05 09:34 | 39.63243 | -8.51549 | 4453 ft | 122 kts | 21° |
| 2026-05-05 09:35 | 39.63991 | -8.51025 | 4454 ft | 121 kts | 21° |
| 2026-05-05 09:35 | 39.65473 | -8.49983 | 4467 ft | 121 kts | 21° |
| 2026-05-05 09:35 | 39.66215 | -8.49462 | 4465 ft | 121 kts | 21° |
| 2026-05-05 09:36 | 39.66970 | -8.48940 | 4456 ft | 121 kts | 19° |
| 2026-05-05 09:36 | 39.67734 | -8.48471 | 4447 ft | 121 kts | 17° |
| 2026-05-05 09:36 | 39.68509 | -8.48032 | 4446 ft | 121 kts | 16° |
| 2026-05-05 09:36 | 39.69286 | -8.47619 | 4447 ft | 121 kts | 16° |
| 2026-05-05 09:37 | 39.70063 | -8.47202 | 4447 ft | 121 kts | 17° |
| 2026-05-05 09:37 | 39.70845 | -8.46776 | 4446 ft | 121 kts | 17° |
| 2026-05-05 09:37 | 39.71616 | -8.46350 | 4450 ft | 120 kts | 17° |
| 2026-05-05 09:37 | 39.72384 | -8.45923 | 4452 ft | 120 kts | 17° |
| 2026-05-05 09:38 | 39.73158 | -8.45490 | 4458 ft | 120 kts | 17° |
| 2026-05-05 09:38 | 39.73927 | -8.45058 | 4452 ft | 120 kts | 17° |
| 2026-05-05 09:38 | 39.74703 | -8.44621 | 4450 ft | 120 kts | 17° |
| 2026-05-05 09:38 | 39.75467 | -8.44189 | 4453 ft | 121 kts | 17° |
| 2026-05-05 09:39 | 39.76240 | -8.43752 | 4454 ft | 121 kts | 17° |
| 2026-05-05 09:39 | 39.77020 | -8.43311 | 4451 ft | 121 kts | 16° |
| 2026-05-05 09:39 | 39.77790 | -8.42876 | 4448 ft | 121 kts | 17° |
| 2026-05-05 09:39 | 39.78567 | -8.42436 | 4445 ft | 121 kts | 17° |
| 2026-05-05 09:40 | 39.79346 | -8.41995 | 4447 ft | 121 kts | 17° |
| 2026-05-05 09:40 | 39.80115 | -8.41560 | 4446 ft | 121 kts | 17° |
| 2026-05-05 09:40 | 39.80896 | -8.41118 | 4446 ft | 121 kts | 17° |
| 2026-05-05 09:40 | 39.81670 | -8.40677 | 4458 ft | 121 kts | 17° |
| 2026-05-05 09:41 | 39.82443 | -8.40235 | 4449 ft | 123 kts | 18° |
| 2026-05-05 09:41 | 39.83232 | -8.39785 | 4450 ft | 123 kts | 18° |
| 2026-05-05 09:41 | 39.84016 | -8.39339 | 4450 ft | 123 kts | 18° |
| 2026-05-05 09:41 | 39.84806 | -8.38890 | 4452 ft | 123 kts | 17° |
| 2026-05-05 09:42 | 39.84926 | -8.38822 | 4452 ft | 123 kts | 17° |
| 2026-05-05 09:42 | 39.85453 | -8.38523 | 4456 ft | 123 kts | 17° |
| 2026-05-05 09:42 | 39.86241 | -8.38074 | 4452 ft | 123 kts | 17° |
| 2026-05-05 09:42 | 39.87024 | -8.37630 | 4450 ft | 123 kts | 17° |
| 2026-05-05 09:43 | 39.87812 | -8.37182 | 4449 ft | 123 kts | 17° |
| 2026-05-05 09:43 | 39.88598 | -8.36733 | 4456 ft | 124 kts | 17° |
| 2026-05-05 09:43 | 39.89395 | -8.36280 | 4445 ft | 124 kts | 17° |
| 2026-05-05 09:43 | 39.90181 | -8.35834 | 4444 ft | 124 kts | 17° |
| 2026-05-05 09:44 | 39.90976 | -8.35383 | 4447 ft | 124 kts | 17° |
| 2026-05-05 09:44 | 39.91769 | -8.34932 | 4448 ft | 124 kts | 18° |
| 2026-05-05 09:44 | 39.92553 | -8.34487 | 4447 ft | 124 kts | 18° |
| 2026-05-05 09:44 | 39.93346 | -8.34035 | 4446 ft | 124 kts | 18° |
| 2026-05-05 09:45 | 39.94134 | -8.33587 | 4445 ft | 124 kts | 18° |
| 2026-05-05 09:45 | 39.94929 | -8.33135 | 4439 ft | 124 kts | 18° |
| 2026-05-05 09:45 | 39.95717 | -8.32685 | 4432 ft | 124 kts | 19° |
| 2026-05-05 09:45 | 39.96511 | -8.32232 | 4433 ft | 124 kts | 18° |
| 2026-05-05 09:46 | 39.97305 | -8.31780 | 4433 ft | 124 kts | 18° |
| 2026-05-05 09:46 | 39.98100 | -8.31327 | 4425 ft | 123 kts | 18° |
| 2026-05-05 09:46 | 39.98879 | -8.30883 | 4425 ft | 123 kts | 18° |
| 2026-05-05 09:46 | 39.99668 | -8.30432 | 4445 ft | 123 kts | 18° |
| 2026-05-05 09:47 | 40.00460 | -8.29981 | 4432 ft | 123 kts | 17° |
| 2026-05-05 09:47 | 40.01236 | -8.29538 | 4430 ft | 123 kts | 18° |
| 2026-05-05 09:47 | 40.02026 | -8.29086 | 4434 ft | 122 kts | 17° |
| 2026-05-05 09:47 | 40.02818 | -8.28634 | 4444 ft | 124 kts | 17° |
| 2026-05-05 09:48 | 40.03605 | -8.28186 | 4438 ft | 123 kts | 18° |
| 2026-05-05 09:48 | 40.04395 | -8.27736 | 4431 ft | 124 kts | 18° |
| 2026-05-05 09:48 | 40.05188 | -8.27284 | 4444 ft | 124 kts | 17° |
| 2026-05-05 09:48 | 40.05982 | -8.26831 | 4457 ft | 124 kts | 17° |
| 2026-05-05 09:49 | 40.06777 | -8.26380 | 4447 ft | 125 kts | 18° |
| 2026-05-05 09:49 | 40.07571 | -8.25928 | 4445 ft | 125 kts | 18° |
| 2026-05-05 09:49 | 40.08372 | -8.25470 | 4441 ft | 125 kts | 18° |
| 2026-05-05 09:49 | 40.09171 | -8.25013 | 4442 ft | 125 kts | 18° |
| 2026-05-05 09:50 | 40.09970 | -8.24556 | 4437 ft | 125 kts | 18° |
| 2026-05-05 09:50 | 40.10764 | -8.24102 | 4443 ft | 124 kts | 18° |
| 2026-05-05 09:50 | 40.11554 | -8.23650 | 4443 ft | 124 kts | 18° |
| 2026-05-05 09:50 | 40.12352 | -8.23193 | 4446 ft | 124 kts | 18° |
| 2026-05-05 09:51 | 40.13139 | -8.22742 | 4446 ft | 124 kts | 17° |
| 2026-05-05 09:51 | 40.13929 | -8.22289 | 4444 ft | 124 kts | 18° |
| 2026-05-05 09:51 | 40.14722 | -8.21835 | 4443 ft | 124 kts | 17° |
| 2026-05-05 09:51 | 40.15518 | -8.21378 | 4443 ft | 125 kts | 18° |
| 2026-05-05 09:52 | 40.16307 | -8.20926 | 4444 ft | 125 kts | 18° |
| 2026-05-05 09:52 | 40.17106 | -8.20468 | 4444 ft | 125 kts | 18° |
| 2026-05-05 09:52 | 40.17907 | -8.20009 | 4445 ft | 125 kts | 18° |
| 2026-05-05 09:52 | 40.18702 | -8.19553 | 4445 ft | 124 kts | 18° |
| 2026-05-05 09:53 | 40.19500 | -8.19096 | 4444 ft | 125 kts | 18° |
| 2026-05-05 09:53 | 40.20292 | -8.18642 | 4443 ft | 124 kts | 18° |
| 2026-05-05 09:53 | 40.21080 | -8.18190 | 4441 ft | 124 kts | 18° |
| 2026-05-05 09:53 | 40.21876 | -8.17732 | 4440 ft | 125 kts | 18° |
| 2026-05-05 09:54 | 40.22677 | -8.17272 | 4443 ft | 125 kts | 18° |
| 2026-05-05 09:54 | 40.23473 | -8.16815 | 4441 ft | 125 kts | 18° |
| 2026-05-05 09:54 | 40.24273 | -8.16355 | 4441 ft | 125 kts | 18° |
| 2026-05-05 09:54 | 40.25067 | -8.15899 | 4440 ft | 125 kts | 18° |
| 2026-05-05 09:55 | 40.25873 | -8.15444 | 4442 ft | 125 kts | 17° |
| 2026-05-05 09:55 | 40.26668 | -8.14995 | 4443 ft | 125 kts | 17° |
| 2026-05-05 09:55 | 40.27473 | -8.14537 | 4441 ft | 125 kts | 17° |
| 2026-05-05 09:55 | 40.28274 | -8.14079 | 4441 ft | 125 kts | 18° |
| 2026-05-05 09:56 | 40.29069 | -8.13623 | 4439 ft | 125 kts | 18° |
| 2026-05-05 09:56 | 40.29874 | -8.13161 | 4440 ft | 125 kts | 18° |
| 2026-05-05 09:56 | 40.30687 | -8.12698 | 4327 ft | 130 kts | 18° |
| 2026-05-05 09:56 | 40.31525 | -8.12224 | 4202 ft | 131 kts | 18° |
| 2026-05-05 09:57 | 40.32368 | -8.11745 | 4083 ft | 132 kts | 18° |
| 2026-05-05 09:57 | 40.33204 | -8.11268 | 3960 ft | 132 kts | 18° |
| 2026-05-05 09:57 | 40.34050 | -8.10783 | 3833 ft | 132 kts | 18° |
| 2026-05-05 09:57 | 40.34896 | -8.10296 | 3707 ft | 133 kts | 18° |
| 2026-05-05 09:58 | 40.35750 | -8.09805 | 3579 ft | 133 kts | 18° |
| 2026-05-05 09:58 | 40.36591 | -8.09321 | 3459 ft | 132 kts | 18° |
| 2026-05-05 09:58 | 40.37425 | -8.08835 | 3441 ft | 128 kts | 18° |
| 2026-05-05 09:58 | 40.38233 | -8.08362 | 3440 ft | 126 kts | 18° |
| 2026-05-05 09:59 | 40.39032 | -8.07894 | 3440 ft | 125 kts | 18° |
| 2026-05-05 09:59 | 40.39835 | -8.07426 | 3440 ft | 126 kts | 18° |
| 2026-05-05 09:59 | 40.40641 | -8.06958 | 3440 ft | 126 kts | 18° |
| 2026-05-05 09:59 | 40.41439 | -8.06497 | 3442 ft | 126 kts | 18° |
| 2026-05-05 10:00 | 40.42244 | -8.06031 | 3446 ft | 126 kts | 18° |
| 2026-05-05 10:00 | 40.43061 | -8.05563 | 3339 ft | 130 kts | 18° |
| 2026-05-05 10:00 | 40.43899 | -8.05086 | 3212 ft | 132 kts | 18° |
| 2026-05-05 10:00 | 40.44752 | -8.04600 | 3087 ft | 132 kts | 19° |
| 2026-05-05 10:01 | 40.45591 | -8.04118 | 2965 ft | 133 kts | 19° |
| 2026-05-05 10:01 | 40.46433 | -8.03629 | 2945 ft | 128 kts | 19° |
| 2026-05-05 10:01 | 40.47242 | -8.03154 | 2938 ft | 127 kts | 19° |
| 2026-05-05 10:01 | 40.48050 | -8.02681 | 2934 ft | 127 kts | 19° |
| 2026-05-05 10:02 | 40.48863 | -8.02206 | 2929 ft | 126 kts | 19° |
| 2026-05-05 10:02 | 40.49661 | -8.01741 | 2930 ft | 126 kts | 18° |
| 2026-05-05 10:02 | 40.50469 | -8.01271 | 2930 ft | 126 kts | 18° |
| 2026-05-05 10:02 | 40.51269 | -8.00806 | 2933 ft | 126 kts | 19° |
| 2026-05-05 10:03 | 40.52076 | -8.00338 | 2936 ft | 127 kts | 19° |
| 2026-05-05 10:03 | 40.52883 | -7.99870 | 2942 ft | 127 kts | 19° |
| 2026-05-05 10:03 | 40.53698 | -7.99398 | 2946 ft | 127 kts | 19° |
| 2026-05-05 10:03 | 40.54503 | -7.98932 | 2943 ft | 127 kts | 19° |
| 2026-05-05 10:04 | 40.55311 | -7.98464 | 2940 ft | 127 kts | 19° |
| 2026-05-05 10:04 | 40.56118 | -7.97995 | 2943 ft | 127 kts | 19° |
| 2026-05-05 10:04 | 40.56924 | -7.97527 | 2939 ft | 127 kts | 19° |
| 2026-05-05 10:04 | 40.57740 | -7.97054 | 2935 ft | 126 kts | 19° |
| 2026-05-05 10:05 | 40.58547 | -7.96616 | 2924 ft | 127 kts | 21° |
| 2026-05-05 10:05 | 40.59336 | -7.96096 | 2932 ft | 127 kts | 22° |
| 2026-05-05 10:05 | 40.60123 | -7.95573 | 2940 ft | 127 kts | 22° |
| 2026-05-05 10:05 | 40.60922 | -7.95039 | 2937 ft | 127 kts | 22° |
| 2026-05-05 10:06 | 40.61716 | -7.94515 | 2935 ft | 128 kts | 21° |
| 2026-05-05 10:06 | 40.62517 | -7.93982 | 2926 ft | 128 kts | 22° |
| 2026-05-05 10:06 | 40.63308 | -7.93456 | 2931 ft | 128 kts | 21° |
| 2026-05-05 10:06 | 40.64109 | -7.92931 | 2933 ft | 128 kts | 19° |
| 2026-05-05 10:07 | 40.64948 | -7.92525 | 2940 ft | 127 kts | 13° |
| 2026-05-05 10:07 | 40.65791 | -7.92161 | 2934 ft | 128 kts | 14° |
| 2026-05-05 10:07 | 40.66624 | -7.91764 | 2931 ft | 128 kts | 16° |
| 2026-05-05 10:07 | 40.67451 | -7.91334 | 2935 ft | 127 kts | 18° |
| 2026-05-05 10:08 | 40.68264 | -7.90889 | 2910 ft | 122 kts | 16° |
| 2026-05-05 10:08 | 40.69044 | -7.90490 | 2751 ft | 120 kts | 18° |
| 2026-05-05 10:08 | 40.69693 | -7.89802 | 2638 ft | 115 kts | 37° |
| 2026-05-05 10:08 | 40.70225 | -7.89105 | 2743 ft | 105 kts | 38° |
| 2026-05-05 10:09 | 40.70751 | -7.88436 | 2809 ft | 103 kts | 37° |
| 2026-05-05 10:09 | 40.71207 | -7.87720 | 2768 ft | 101 kts | 50° |
| 2026-05-05 10:09 | 40.71459 | -7.86882 | 2792 ft | 96 kts | 60° |
| 2026-05-05 10:09 | 40.71683 | -7.86091 | 2776 ft | 88 kts | 66° |
| 2026-05-05 10:10 | 40.72042 | -7.85582 | 2728 ft | 75 kts | 3° |
| 2026-05-05 10:10 | 40.72363 | -7.86050 | 2563 ft | 76 kts | 269° |
| 2026-05-05 10:10 | 40.72365 | -7.86713 | 2490 ft | 70 kts | 279° |
| 2026-05-05 10:10 | 40.72401 | -7.87289 | 2454 ft | 53 kts | 274° |
| 2026-05-05 10:11 | 40.72407 | -7.87674 | 2396 ft | 32 kts | 295° |
| 2026-05-05 10:11 | 40.72424 | -7.87989 | 2333 ft | 35 kts | 276° |
| 2026-05-05 10:11 | 40.72440 | -7.88292 | 2249 ft | 31 kts | 278° |
| 2026-05-05 10:11 | 40.72445 | -7.88537 | 2182 ft | 21 kts | 276° |
| 2026-05-05 10:12 | 40.72432 | -7.88710 | 2133 ft | 15 kts | 273° |
| 2026-05-05 10:12 | 40.72427 | -7.88797 | 2112 ft | 11 kts | 276° |
| 2026-05-05 10:12 | 40.72425 | -7.88902 | 2099 ft | 12 kts | 275° |
| 2026-05-05 10:12 | 40.72417 | -7.88996 | 2076 ft | 6 kts | 269° |
| 2026-05-05 10:13 | 40.72415 | -7.89028 | 2059 ft | 1 kts | 261° |
| 2026-05-05 10:13 | 40.72414 | -7.89032 | 2054 ft | 4 kts | 266° |
| 2026-05-05 10:13 | 40.72413 | -7.89029 | 2053 ft | 2 kts | 273° |
| 2026-05-05 10:13 | 40.72414 | -7.89032 | 2051 ft | 0 kts | 264° |